sensor_id;sensor_type;location;lat;lon;timestamp;P1;durP1;ratioP1;P2;durP2;ratioP2
19846;SDS011;10084;50.518;8.588;2023-04-23T00:00:05;2.07;;;1.37;;
19846;SDS011;10084;50.518;8.588;2023-04-23T00:02:38;1.57;;;1.47;;
19846;SDS011;10084;50.518;8.588;2023-04-23T00:05:04;1.57;;;1.47;;
19846;SDS011;10084;50.518;8.588;2023-04-23T00:07:31;1.63;;;1.43;;
19846;SDS011;10084;50.518;8.588;2023-04-23T00:09:58;1.53;;;1.43;;
19846;SDS011;10084;50.518;8.588;2023-04-23T00:12:26;1.50;;;1.40;;
19846;SDS011;10084;50.518;8.588;2023-04-23T00:14:53;2.43;;;1.70;;
19846;SDS011;10084;50.518;8.588;2023-04-23T00:17:20;1.80;;;1.70;;
19846;SDS011;10084;50.518;8.588;2023-04-23T00:19:45;4.17;;;1.87;;
19846;SDS011;10084;50.518;8.588;2023-04-23T00:22:12;5.17;;;1.70;;
19846;SDS011;10084;50.518;8.588;2023-04-23T00:24:41;1.87;;;1.77;;
19846;SDS011;10084;50.518;8.588;2023-04-23T00:27:07;1.70;;;1.47;;
19846;SDS011;10084;50.518;8.588;2023-04-23T00:29:33;2.47;;;1.17;;
19846;SDS011;10084;50.518;8.588;2023-04-23T00:31:59;1.37;;;1.27;;
19846;SDS011;10084;50.518;8.588;2023-04-23T00:34:25;1.30;;;1.17;;
19846;SDS011;10084;50.518;8.588;2023-04-23T00:36:51;1.83;;;1.73;;
19846;SDS011;10084;50.518;8.588;2023-04-23T00:39:17;2.60;;;1.47;;
19846;SDS011;10084;50.518;8.588;2023-04-23T00:41:44;1.50;;;1.33;;
19846;SDS011;10084;50.518;8.588;2023-04-23T00:44:10;1.83;;;1.10;;
19846;SDS011;10084;50.518;8.588;2023-04-23T00:46:37;1.80;;;1.37;;
19846;SDS011;10084;50.518;8.588;2023-04-23T00:49:03;1.57;;;1.47;;
19846;SDS011;10084;50.518;8.588;2023-04-23T00:51:29;1.37;;;1.20;;
19846;SDS011;10084;50.518;8.588;2023-04-23T00:53:56;2.87;;;1.80;;
19846;SDS011;10084;50.518;8.588;2023-04-23T00:56:22;1.57;;;1.47;;
19846;SDS011;10084;50.518;8.588;2023-04-23T00:58:52;2.40;;;1.43;;
19846;SDS011;10084;50.518;8.588;2023-04-23T01:01:19;1.40;;;1.30;;
19846;SDS011;10084;50.518;8.588;2023-04-23T01:03:47;1.60;;;1.50;;
19846;SDS011;10084;50.518;8.588;2023-04-23T01:06:14;1.60;;;1.50;;
19846;SDS011;10084;50.518;8.588;2023-04-23T01:08:44;1.93;;;1.37;;
19846;SDS011;10084;50.518;8.588;2023-04-23T01:11:15;1.10;;;1.00;;
19846;SDS011;10084;50.518;8.588;2023-04-23T01:13:42;1.70;;;1.60;;
19846;SDS011;10084;50.518;8.588;2023-04-23T01:16:09;1.40;;;1.30;;
19846;SDS011;10084;50.518;8.588;2023-04-23T01:18:36;1.83;;;1.50;;
19846;SDS011;10084;50.518;8.588;2023-04-23T01:21:02;1.50;;;1.13;;
19846;SDS011;10084;50.518;8.588;2023-04-23T01:23:29;1.60;;;1.50;;
19846;SDS011;10084;50.518;8.588;2023-04-23T01:25:56;1.73;;;1.63;;
19846;SDS011;10084;50.518;8.588;2023-04-23T01:28:23;4.47;;;1.33;;
19846;SDS011;10084;50.518;8.588;2023-04-23T01:30:49;1.47;;;1.37;;
19846;SDS011;10084;50.518;8.588;2023-04-23T01:33:15;1.23;;;1.13;;
19846;SDS011;10084;50.518;8.588;2023-04-23T01:35:42;2.07;;;1.67;;
19846;SDS011;10084;50.518;8.588;2023-04-23T01:38:09;1.77;;;1.67;;
19846;SDS011;10084;50.518;8.588;2023-04-23T01:40:36;1.80;;;1.40;;
19846;SDS011;10084;50.518;8.588;2023-04-23T01:43:03;1.93;;;1.83;;
19846;SDS011;10084;50.518;8.588;2023-04-23T01:45:30;1.60;;;1.50;;
19846;SDS011;10084;50.518;8.588;2023-04-23T01:47:57;1.70;;;1.60;;
19846;SDS011;10084;50.518;8.588;2023-04-23T01:50:23;2.50;;;1.77;;
19846;SDS011;10084;50.518;8.588;2023-04-23T01:52:50;1.47;;;1.37;;
19846;SDS011;10084;50.518;8.588;2023-04-23T01:55:18;2.93;;;1.73;;
19846;SDS011;10084;50.518;8.588;2023-04-23T01:57:45;1.73;;;1.63;;
19846;SDS011;10084;50.518;8.588;2023-04-23T02:00:12;2.10;;;1.37;;
19846;SDS011;10084;50.518;8.588;2023-04-23T02:02:39;1.80;;;1.70;;
19846;SDS011;10084;50.518;8.588;2023-04-23T02:05:10;2.47;;;2.00;;
19846;SDS011;10084;50.518;8.588;2023-04-23T02:07:42;1.83;;;1.73;;
19846;SDS011;10084;50.518;8.588;2023-04-23T02:10:09;2.13;;;1.93;;
19846;SDS011;10084;50.518;8.588;2023-04-23T02:12:35;2.23;;;2.03;;
19846;SDS011;10084;50.518;8.588;2023-04-23T02:15:02;3.20;;;2.30;;
19846;SDS011;10084;50.518;8.588;2023-04-23T02:17:29;1.97;;;1.80;;
19846;SDS011;10084;50.518;8.588;2023-04-23T02:19:55;2.77;;;2.23;;
19846;SDS011;10084;50.518;8.588;2023-04-23T02:22:20;2.63;;;2.30;;
19846;SDS011;10084;50.518;8.588;2023-04-23T02:24:49;2.23;;;2.13;;
19846;SDS011;10084;50.518;8.588;2023-04-23T02:27:16;2.70;;;2.50;;
19846;SDS011;10084;50.518;8.588;2023-04-23T02:29:43;4.20;;;2.10;;
19846;SDS011;10084;50.518;8.588;2023-04-23T02:32:09;2.63;;;2.43;;
19846;SDS011;10084;50.518;8.588;2023-04-23T02:34:35;2.13;;;2.03;;
19846;SDS011;10084;50.518;8.588;2023-04-23T02:37:01;2.07;;;1.97;;
19846;SDS011;10084;50.518;8.588;2023-04-23T02:39:29;2.23;;;2.13;;
19846;SDS011;10084;50.518;8.588;2023-04-23T02:41:56;2.13;;;2.03;;
19846;SDS011;10084;50.518;8.588;2023-04-23T02:44:23;1.77;;;1.67;;
19846;SDS011;10084;50.518;8.588;2023-04-23T02:46:50;2.40;;;1.67;;
19846;SDS011;10084;50.518;8.588;2023-04-23T02:49:16;1.87;;;1.77;;
19846;SDS011;10084;50.518;8.588;2023-04-23T02:51:44;2.20;;;2.10;;
19846;SDS011;10084;50.518;8.588;2023-04-23T02:54:11;2.20;;;2.10;;
19846;SDS011;10084;50.518;8.588;2023-04-23T02:56:37;2.00;;;1.90;;
19846;SDS011;10084;50.518;8.588;2023-04-23T02:59:03;4.67;;;2.17;;
19846;SDS011;10084;50.518;8.588;2023-04-23T03:01:30;2.10;;;2.00;;
19846;SDS011;10084;50.518;8.588;2023-04-23T03:03:57;2.10;;;1.90;;
19846;SDS011;10084;50.518;8.588;2023-04-23T03:06:23;2.57;;;2.37;;
19846;SDS011;10084;50.518;8.588;2023-04-23T03:08:49;2.60;;;2.40;;
19846;SDS011;10084;50.518;8.588;2023-04-23T03:11:15;2.27;;;2.13;;
19846;SDS011;10084;50.518;8.588;2023-04-23T03:13:41;2.13;;;2.03;;
19846;SDS011;10084;50.518;8.588;2023-04-23T03:16:07;1.93;;;1.83;;
19846;SDS011;10084;50.518;8.588;2023-04-23T03:18:33;1.90;;;1.80;;
19846;SDS011;10084;50.518;8.588;2023-04-23T03:21:01;2.60;;;2.17;;
19846;SDS011;10084;50.518;8.588;2023-04-23T03:23:28;2.37;;;2.13;;
19846;SDS011;10084;50.518;8.588;2023-04-23T03:25:55;2.20;;;2.10;;
19846;SDS011;10084;50.518;8.588;2023-04-23T03:28:22;2.20;;;1.93;;
19846;SDS011;10084;50.518;8.588;2023-04-23T03:30:49;2.63;;;2.43;;
19846;SDS011;10084;50.518;8.588;2023-04-23T03:33:15;2.43;;;2.30;;
19846;SDS011;10084;50.518;8.588;2023-04-23T03:35:42;2.27;;;2.07;;
19846;SDS011;10084;50.518;8.588;2023-04-23T03:38:14;1.83;;;1.73;;
19846;SDS011;10084;50.518;8.588;2023-04-23T03:40:41;2.20;;;2.10;;
19846;SDS011;10084;50.518;8.588;2023-04-23T03:43:10;2.60;;;2.40;;
19846;SDS011;10084;50.518;8.588;2023-04-23T03:46:03;5.43;;;2.40;;
19846;SDS011;10084;50.518;8.588;2023-04-23T03:48:34;2.83;;;2.63;;
19846;SDS011;10084;50.518;8.588;2023-04-23T03:51:06;2.30;;;2.10;;
19846;SDS011;10084;50.518;8.588;2023-04-23T03:53:46;2.50;;;2.30;;
19846;SDS011;10084;50.518;8.588;2023-04-23T03:56:31;4.07;;;2.17;;
19846;SDS011;10084;50.518;8.588;2023-04-23T03:59:34;3.03;;;2.83;;
19846;SDS011;10084;50.518;8.588;2023-04-23T04:02:01;2.57;;;2.13;;
19846;SDS011;10084;50.518;8.588;2023-04-23T04:04:31;2.37;;;2.27;;
19846;SDS011;10084;50.518;8.588;2023-04-23T04:07:19;2.50;;;2.33;;
19846;SDS011;10084;50.518;8.588;2023-04-23T04:10:01;3.90;;;2.30;;
19846;SDS011;10084;50.518;8.588;2023-04-23T04:12:28;2.40;;;2.20;;
19846;SDS011;10084;50.518;8.588;2023-04-23T04:14:54;2.57;;;2.37;;
19846;SDS011;10084;50.518;8.588;2023-04-23T04:17:21;3.67;;;2.23;;
19846;SDS011;10084;50.518;8.588;2023-04-23T04:19:46;2.10;;;1.90;;
19846;SDS011;10084;50.518;8.588;2023-04-23T04:22:13;2.67;;;2.47;;
19846;SDS011;10084;50.518;8.588;2023-04-23T04:24:40;2.53;;;2.40;;
19846;SDS011;10084;50.518;8.588;2023-04-23T04:27:06;2.20;;;2.10;;
19846;SDS011;10084;50.518;8.588;2023-04-23T04:29:33;1.60;;;1.50;;
19846;SDS011;10084;50.518;8.588;2023-04-23T04:31:59;2.50;;;2.33;;
19846;SDS011;10084;50.518;8.588;2023-04-23T04:34:26;4.20;;;2.23;;
19846;SDS011;10084;50.518;8.588;2023-04-23T04:36:53;2.53;;;1.90;;
19846;SDS011;10084;50.518;8.588;2023-04-23T04:39:20;3.07;;;2.23;;
19846;SDS011;10084;50.518;8.588;2023-04-23T04:41:47;2.10;;;1.90;;
19846;SDS011;10084;50.518;8.588;2023-04-23T04:44:14;2.40;;;1.87;;
19846;SDS011;10084;50.518;8.588;2023-04-23T04:46:40;2.60;;;2.40;;
19846;SDS011;10084;50.518;8.588;2023-04-23T04:49:10;2.30;;;2.07;;
19846;SDS011;10084;50.518;8.588;2023-04-23T04:51:36;2.23;;;2.03;;
19846;SDS011;10084;50.518;8.588;2023-04-23T04:54:03;1.90;;;1.80;;
19846;SDS011;10084;50.518;8.588;2023-04-23T04:56:30;5.37;;;2.20;;
19846;SDS011;10084;50.518;8.588;2023-04-23T04:58:56;2.37;;;2.17;;
19846;SDS011;10084;50.518;8.588;2023-04-23T05:01:21;2.77;;;2.57;;
19846;SDS011;10084;50.518;8.588;2023-04-23T05:03:48;4.20;;;2.50;;
19846;SDS011;10084;50.518;8.588;2023-04-23T05:06:14;2.63;;;1.93;;
19846;SDS011;10084;50.518;8.588;2023-04-23T05:08:40;2.87;;;2.67;;
19846;SDS011;10084;50.518;8.588;2023-04-23T05:11:18;3.27;;;2.40;;
19846;SDS011;10084;50.518;8.588;2023-04-23T05:13:46;1.83;;;1.73;;
19846;SDS011;10084;50.518;8.588;2023-04-23T05:16:14;5.53;;;2.00;;
19846;SDS011;10084;50.518;8.588;2023-04-23T05:18:40;2.30;;;2.03;;
19846;SDS011;10084;50.518;8.588;2023-04-23T05:21:06;1.90;;;1.80;;
19846;SDS011;10084;50.518;8.588;2023-04-23T05:23:33;4.23;;;1.90;;
19846;SDS011;10084;50.518;8.588;2023-04-23T05:25:59;2.93;;;1.90;;
19846;SDS011;10084;50.518;8.588;2023-04-23T05:28:27;2.40;;;2.30;;
19846;SDS011;10084;50.518;8.588;2023-04-23T05:30:54;3.00;;;2.23;;
19846;SDS011;10084;50.518;8.588;2023-04-23T05:33:20;2.00;;;1.90;;
19846;SDS011;10084;50.518;8.588;2023-04-23T05:35:46;2.33;;;2.13;;
19846;SDS011;10084;50.518;8.588;2023-04-23T05:38:12;2.13;;;2.03;;
19846;SDS011;10084;50.518;8.588;2023-04-23T05:40:37;2.23;;;2.10;;
19846;SDS011;10084;50.518;8.588;2023-04-23T05:43:03;1.93;;;1.83;;
19846;SDS011;10084;50.518;8.588;2023-04-23T05:45:29;2.43;;;2.23;;
19846;SDS011;10084;50.518;8.588;2023-04-23T05:47:54;2.40;;;2.30;;
19846;SDS011;10084;50.518;8.588;2023-04-23T05:50:20;1.80;;;1.70;;
19846;SDS011;10084;50.518;8.588;2023-04-23T05:52:46;1.73;;;1.63;;
19846;SDS011;10084;50.518;8.588;2023-04-23T05:55:12;1.87;;;1.77;;
19846;SDS011;10084;50.518;8.588;2023-04-23T05:57:40;1.90;;;1.80;;
19846;SDS011;10084;50.518;8.588;2023-04-23T06:00:06;1.63;;;1.53;;
19846;SDS011;10084;50.518;8.588;2023-04-23T06:02:37;2.27;;;2.17;;
19846;SDS011;10084;50.518;8.588;2023-04-23T06:05:04;1.60;;;1.50;;
19846;SDS011;10084;50.518;8.588;2023-04-23T06:07:31;2.50;;;2.30;;
19846;SDS011;10084;50.518;8.588;2023-04-23T06:09:57;3.13;;;1.77;;
19846;SDS011;10084;50.518;8.588;2023-04-23T06:12:23;1.77;;;1.67;;
19846;SDS011;10084;50.518;8.588;2023-04-23T06:14:49;1.80;;;1.70;;
19846;SDS011;10084;50.518;8.588;2023-04-23T06:17:16;1.63;;;1.53;;
19846;SDS011;10084;50.518;8.588;2023-04-23T06:19:42;2.33;;;1.47;;
19846;SDS011;10084;50.518;8.588;2023-04-23T06:22:08;2.00;;;1.90;;
19846;SDS011;10084;50.518;8.588;2023-04-23T06:24:34;2.10;;;2.00;;
19846;SDS011;10084;50.518;8.588;2023-04-23T06:26:59;1.80;;;1.70;;
19846;SDS011;10084;50.518;8.588;2023-04-23T06:29:27;1.70;;;1.60;;
19846;SDS011;10084;50.518;8.588;2023-04-23T06:32:02;1.70;;;1.60;;
19846;SDS011;10084;50.518;8.588;2023-04-23T06:34:29;1.30;;;1.20;;
19846;SDS011;10084;50.518;8.588;2023-04-23T06:36:58;2.10;;;1.90;;
19846;SDS011;10084;50.518;8.588;2023-04-23T06:39:24;1.33;;;1.23;;
19846;SDS011;10084;50.518;8.588;2023-04-23T06:41:50;1.80;;;1.70;;
19846;SDS011;10084;50.518;8.588;2023-04-23T06:44:33;2.77;;;1.40;;
19846;SDS011;10084;50.518;8.588;2023-04-23T06:46:59;1.70;;;1.60;;
19846;SDS011;10084;50.518;8.588;2023-04-23T06:49:25;1.50;;;1.40;;
19846;SDS011;10084;50.518;8.588;2023-04-23T06:51:51;1.60;;;1.50;;
19846;SDS011;10084;50.518;8.588;2023-04-23T06:54:16;1.57;;;1.47;;
19846;SDS011;10084;50.518;8.588;2023-04-23T06:56:42;1.70;;;1.60;;
19846;SDS011;10084;50.518;8.588;2023-04-23T06:59:08;4.53;;;1.80;;
19846;SDS011;10084;50.518;8.588;2023-04-23T07:01:42;3.60;;;1.57;;
19846;SDS011;10084;50.518;8.588;2023-04-23T07:04:07;2.63;;;1.50;;
19846;SDS011;10084;50.518;8.588;2023-04-23T07:06:33;1.60;;;1.50;;
19846;SDS011;10084;50.518;8.588;2023-04-23T07:08:59;1.30;;;1.20;;
19846;SDS011;10084;50.518;8.588;2023-04-23T07:11:25;1.30;;;1.20;;
19846;SDS011;10084;50.518;8.588;2023-04-23T07:13:56;1.67;;;1.50;;
19846;SDS011;10084;50.518;8.588;2023-04-23T07:16:38;1.40;;;1.30;;
19846;SDS011;10084;50.518;8.588;2023-04-23T07:19:04;1.73;;;1.63;;
19846;SDS011;10084;50.518;8.588;2023-04-23T07:21:30;1.43;;;1.33;;
19846;SDS011;10084;50.518;8.588;2023-04-23T07:23:57;1.40;;;1.30;;
19846;SDS011;10084;50.518;8.588;2023-04-23T07:26:24;1.77;;;1.67;;
19846;SDS011;10084;50.518;8.588;2023-04-23T07:28:53;1.40;;;1.30;;
19846;SDS011;10084;50.518;8.588;2023-04-23T07:31:19;1.20;;;1.10;;
19846;SDS011;10084;50.518;8.588;2023-04-23T07:33:45;1.50;;;1.40;;
19846;SDS011;10084;50.518;8.588;2023-04-23T07:36:11;1.33;;;1.23;;
19846;SDS011;10084;50.518;8.588;2023-04-23T07:38:37;1.37;;;1.27;;
19846;SDS011;10084;50.518;8.588;2023-04-23T07:41:03;2.53;;;1.30;;
19846;SDS011;10084;50.518;8.588;2023-04-23T07:43:29;1.20;;;1.20;;
19846;SDS011;10084;50.518;8.588;2023-04-23T07:45:55;1.10;;;1.00;;
19846;SDS011;10084;50.518;8.588;2023-04-23T07:48:21;1.07;;;0.97;;
19846;SDS011;10084;50.518;8.588;2023-04-23T07:50:47;0.90;;;0.90;;
19846;SDS011;10084;50.518;8.588;2023-04-23T07:53:13;1.20;;;1.10;;
19846;SDS011;10084;50.518;8.588;2023-04-23T07:55:39;1.30;;;0.97;;
19846;SDS011;10084;50.518;8.588;2023-04-23T07:58:06;1.53;;;0.73;;
19846;SDS011;10084;50.518;8.588;2023-04-23T08:00:32;0.93;;;0.90;;
19846;SDS011;10084;50.518;8.588;2023-04-23T08:02:58;3.20;;;1.00;;
19846;SDS011;10084;50.518;8.588;2023-04-23T08:05:24;1.23;;;1.20;;
19846;SDS011;10084;50.518;8.588;2023-04-23T08:07:51;0.80;;;0.80;;
19846;SDS011;10084;50.518;8.588;2023-04-23T08:10:17;1.23;;;1.13;;
19846;SDS011;10084;50.518;8.588;2023-04-23T08:12:43;1.50;;;1.40;;
19846;SDS011;10084;50.518;8.588;2023-04-23T08:15:10;1.40;;;1.30;;
19846;SDS011;10084;50.518;8.588;2023-04-23T08:17:39;6.73;;;1.33;;
19846;SDS011;10084;50.518;8.588;2023-04-23T08:20:06;1.00;;;1.00;;
19846;SDS011;10084;50.518;8.588;2023-04-23T08:22:32;1.20;;;1.10;;
19846;SDS011;10084;50.518;8.588;2023-04-23T08:24:58;2.87;;;1.00;;
19846;SDS011;10084;50.518;8.588;2023-04-23T08:27:25;1.27;;;1.07;;
19846;SDS011;10084;50.518;8.588;2023-04-23T08:29:51;0.80;;;0.80;;
19846;SDS011;10084;50.518;8.588;2023-04-23T08:32:17;1.27;;;1.10;;
19846;SDS011;10084;50.518;8.588;2023-04-23T08:34:46;1.07;;;0.97;;
19846;SDS011;10084;50.518;8.588;2023-04-23T08:37:13;3.40;;;1.00;;
19846;SDS011;10084;50.518;8.588;2023-04-23T08:39:40;1.10;;;1.00;;
19846;SDS011;10084;50.518;8.588;2023-04-23T08:42:09;1.03;;;0.90;;
19846;SDS011;10084;50.518;8.588;2023-04-23T08:44:37;1.00;;;1.00;;
19846;SDS011;10084;50.518;8.588;2023-04-23T08:47:03;0.60;;;0.60;;
19846;SDS011;10084;50.518;8.588;2023-04-23T08:49:32;2.80;;;1.00;;
19846;SDS011;10084;50.518;8.588;2023-04-23T08:52:03;1.00;;;1.00;;
19846;SDS011;10084;50.518;8.588;2023-04-23T08:54:31;1.20;;;1.10;;
19846;SDS011;10084;50.518;8.588;2023-04-23T08:56:59;3.70;;;1.10;;
19846;SDS011;10084;50.518;8.588;2023-04-23T08:59:27;2.53;;;1.00;;
19846;SDS011;10084;50.518;8.588;2023-04-23T09:01:55;1.47;;;0.93;;
19846;SDS011;10084;50.518;8.588;2023-04-23T09:04:21;1.23;;;1.13;;
19846;SDS011;10084;50.518;8.588;2023-04-23T09:06:49;0.97;;;0.90;;
19846;SDS011;10084;50.518;8.588;2023-04-23T09:09:16;1.40;;;1.30;;
19846;SDS011;10084;50.518;8.588;2023-04-23T09:11:42;1.23;;;1.13;;
19846;SDS011;10084;50.518;8.588;2023-04-23T09:14:11;1.20;;;1.10;;
19846;SDS011;10084;50.518;8.588;2023-04-23T09:16:40;1.73;;;1.40;;
19846;SDS011;10084;50.518;8.588;2023-04-23T09:19:09;1.33;;;1.23;;
19846;SDS011;10084;50.518;8.588;2023-04-23T09:21:38;1.60;;;1.13;;
19846;SDS011;10084;50.518;8.588;2023-04-23T09:24:08;2.77;;;1.10;;
19846;SDS011;10084;50.518;8.588;2023-04-23T09:26:44;1.47;;;1.10;;
19846;SDS011;10084;50.518;8.588;2023-04-23T09:29:13;1.13;;;1.10;;
19846;SDS011;10084;50.518;8.588;2023-04-23T09:31:41;0.70;;;0.70;;
19846;SDS011;10084;50.518;8.588;2023-04-23T09:34:08;0.90;;;0.80;;
19846;SDS011;10084;50.518;8.588;2023-04-23T09:36:34;1.10;;;0.87;;
19846;SDS011;10084;50.518;8.588;2023-04-23T09:39:01;1.20;;;0.80;;
19846;SDS011;10084;50.518;8.588;2023-04-23T09:41:27;0.93;;;0.83;;
19846;SDS011;10084;50.518;8.588;2023-04-23T09:43:55;1.13;;;0.83;;
19846;SDS011;10084;50.518;8.588;2023-04-23T09:46:32;1.27;;;1.10;;
19846;SDS011;10084;50.518;8.588;2023-04-23T09:48:59;1.70;;;1.60;;
19846;SDS011;10084;50.518;8.588;2023-04-23T09:51:26;1.37;;;1.27;;
19846;SDS011;10084;50.518;8.588;2023-04-23T09:53:52;1.20;;;1.10;;
19846;SDS011;10084;50.518;8.588;2023-04-23T09:56:19;1.40;;;1.30;;
19846;SDS011;10084;50.518;8.588;2023-04-23T09:58:45;1.20;;;1.10;;
19846;SDS011;10084;50.518;8.588;2023-04-23T10:01:11;1.50;;;1.07;;
19846;SDS011;10084;50.518;8.588;2023-04-23T10:03:42;1.10;;;1.00;;
19846;SDS011;10084;50.518;8.588;2023-04-23T10:06:12;0.90;;;0.90;;
19846;SDS011;10084;50.518;8.588;2023-04-23T10:08:39;1.37;;;0.90;;
19846;SDS011;10084;50.518;8.588;2023-04-23T10:11:05;1.17;;;1.07;;
19846;SDS011;10084;50.518;8.588;2023-04-23T10:13:33;2.27;;;0.63;;
19846;SDS011;10084;50.518;8.588;2023-04-23T10:16:00;3.27;;;1.07;;
19846;SDS011;10084;50.518;8.588;2023-04-23T10:18:28;1.20;;;1.10;;
19846;SDS011;10084;50.518;8.588;2023-04-23T10:20:56;1.10;;;1.00;;
19846;SDS011;10084;50.518;8.588;2023-04-23T10:23:22;2.10;;;0.80;;
19846;SDS011;10084;50.518;8.588;2023-04-23T10:25:51;1.40;;;0.90;;
19846;SDS011;10084;50.518;8.588;2023-04-23T10:28:18;1.07;;;0.90;;
19846;SDS011;10084;50.518;8.588;2023-04-23T10:30:51;1.30;;;0.80;;
19846;SDS011;10084;50.518;8.588;2023-04-23T10:33:20;1.03;;;0.80;;
19846;SDS011;10084;50.518;8.588;2023-04-23T10:35:50;1.37;;;1.00;;
19846;SDS011;10084;50.518;8.588;2023-04-23T10:38:17;1.30;;;0.80;;
19846;SDS011;10084;50.518;8.588;2023-04-23T10:40:45;0.90;;;0.90;;
19846;SDS011;10084;50.518;8.588;2023-04-23T10:43:15;0.90;;;0.80;;
19846;SDS011;10084;50.518;8.588;2023-04-23T10:45:42;0.73;;;0.60;;
19846;SDS011;10084;50.518;8.588;2023-04-23T10:48:08;1.00;;;0.70;;
19846;SDS011;10084;50.518;8.588;2023-04-23T10:50:35;2.37;;;0.87;;
19846;SDS011;10084;50.518;8.588;2023-04-23T10:53:01;0.70;;;0.70;;
19846;SDS011;10084;50.518;8.588;2023-04-23T10:55:29;2.27;;;0.70;;
19846;SDS011;10084;50.518;8.588;2023-04-23T10:58:00;0.87;;;0.83;;
19846;SDS011;10084;50.518;8.588;2023-04-23T11:00:27;0.60;;;0.60;;
19846;SDS011;10084;50.518;8.588;2023-04-23T11:03:35;0.73;;;0.53;;
19846;SDS011;10084;50.518;8.588;2023-04-23T11:06:07;1.13;;;0.83;;
19846;SDS011;10084;50.518;8.588;2023-04-23T11:08:36;0.63;;;0.63;;
19846;SDS011;10084;50.518;8.588;2023-04-23T11:11:06;1.37;;;0.90;;
19846;SDS011;10084;50.518;8.588;2023-04-23T11:13:32;1.23;;;0.70;;
19846;SDS011;10084;50.518;8.588;2023-04-23T11:16:14;1.00;;;0.90;;
19846;SDS011;10084;50.518;8.588;2023-04-23T11:18:55;0.90;;;0.80;;
19846;SDS011;10084;50.518;8.588;2023-04-23T11:21:21;1.07;;;0.90;;
19846;SDS011;10084;50.518;8.588;2023-04-23T11:23:47;0.77;;;0.70;;
19846;SDS011;10084;50.518;8.588;2023-04-23T11:26:15;3.00;;;0.70;;
19846;SDS011;10084;50.518;8.588;2023-04-23T11:28:42;0.60;;;0.60;;
19846;SDS011;10084;50.518;8.588;2023-04-23T11:31:09;2.30;;;1.27;;
19846;SDS011;10084;50.518;8.588;2023-04-23T11:33:37;1.30;;;1.20;;
19846;SDS011;10084;50.518;8.588;2023-04-23T11:36:03;1.80;;;0.73;;
19846;SDS011;10084;50.518;8.588;2023-04-23T11:38:32;1.00;;;0.90;;
19846;SDS011;10084;50.518;8.588;2023-04-23T11:41:01;0.67;;;0.60;;
19846;SDS011;10084;50.518;8.588;2023-04-23T11:43:29;0.80;;;0.70;;
19846;SDS011;10084;50.518;8.588;2023-04-23T11:45:55;0.83;;;0.70;;
19846;SDS011;10084;50.518;8.588;2023-04-23T11:48:23;0.67;;;0.67;;
19846;SDS011;10084;50.518;8.588;2023-04-23T11:50:49;0.70;;;0.70;;
19846;SDS011;10084;50.518;8.588;2023-04-23T11:53:17;0.87;;;0.60;;
19846;SDS011;10084;50.518;8.588;2023-04-23T11:55:43;4.90;;;0.80;;
19846;SDS011;10084;50.518;8.588;2023-04-23T11:58:16;1.53;;;0.60;;
19846;SDS011;10084;50.518;8.588;2023-04-23T12:00:43;2.63;;;0.60;;
19846;SDS011;10084;50.518;8.588;2023-04-23T12:03:09;0.80;;;0.80;;
19846;SDS011;10084;50.518;8.588;2023-04-23T12:05:40;0.60;;;0.60;;
19846;SDS011;10084;50.518;8.588;2023-04-23T12:08:10;0.70;;;0.70;;
19846;SDS011;10084;50.518;8.588;2023-04-23T12:10:44;0.60;;;0.60;;
19846;SDS011;10084;50.518;8.588;2023-04-23T12:13:17;1.03;;;0.63;;
19846;SDS011;10084;50.518;8.588;2023-04-23T12:15:50;0.60;;;0.60;;
19846;SDS011;10084;50.518;8.588;2023-04-23T12:18:17;1.00;;;0.77;;
19846;SDS011;10084;50.518;8.588;2023-04-23T12:20:43;1.00;;;0.90;;
19846;SDS011;10084;50.518;8.588;2023-04-23T12:23:10;0.90;;;0.70;;
19846;SDS011;10084;50.518;8.588;2023-04-23T12:25:38;0.70;;;0.67;;
19846;SDS011;10084;50.518;8.588;2023-04-23T12:28:06;2.20;;;0.63;;
19846;SDS011;10084;50.518;8.588;2023-04-23T12:30:33;0.70;;;0.70;;
19846;SDS011;10084;50.518;8.588;2023-04-23T12:32:59;0.70;;;0.70;;
19846;SDS011;10084;50.518;8.588;2023-04-23T12:35:48;1.07;;;0.60;;
19846;SDS011;10084;50.518;8.588;2023-04-23T12:38:25;0.70;;;0.70;;
19846;SDS011;10084;50.518;8.588;2023-04-23T12:40:51;0.97;;;0.77;;
19846;SDS011;10084;50.518;8.588;2023-04-23T12:43:18;1.67;;;0.70;;
19846;SDS011;10084;50.518;8.588;2023-04-23T12:45:44;1.23;;;0.50;;
19846;SDS011;10084;50.518;8.588;2023-04-23T12:48:11;0.67;;;0.67;;
19846;SDS011;10084;50.518;8.588;2023-04-23T12:50:37;1.03;;;0.70;;
19846;SDS011;10084;50.518;8.588;2023-04-23T12:53:03;1.00;;;0.90;;
19846;SDS011;10084;50.518;8.588;2023-04-23T12:55:30;1.20;;;0.63;;
19846;SDS011;10084;50.518;8.588;2023-04-23T12:57:57;3.63;;;0.57;;
19846;SDS011;10084;50.518;8.588;2023-04-23T13:00:23;0.83;;;0.60;;
19846;SDS011;10084;50.518;8.588;2023-04-23T13:02:49;0.40;;;0.40;;
19846;SDS011;10084;50.518;8.588;2023-04-23T13:05:15;1.50;;;0.40;;
19846;SDS011;10084;50.518;8.588;2023-04-23T13:07:42;0.70;;;0.60;;
19846;SDS011;10084;50.518;8.588;2023-04-23T13:10:08;0.70;;;0.40;;
19846;SDS011;10084;50.518;8.588;2023-04-23T13:12:34;0.60;;;0.47;;
19846;SDS011;10084;50.518;8.588;2023-04-23T13:15:00;0.50;;;0.50;;
19846;SDS011;10084;50.518;8.588;2023-04-23T13:17:46;2.83;;;0.50;;
19846;SDS011;10084;50.518;8.588;2023-04-23T13:20:15;0.50;;;0.50;;
19846;SDS011;10084;50.518;8.588;2023-04-23T13:22:41;0.40;;;0.40;;
19846;SDS011;10084;50.518;8.588;2023-04-23T13:25:07;0.37;;;0.37;;
19846;SDS011;10084;50.518;8.588;2023-04-23T13:27:34;0.40;;;0.40;;
19846;SDS011;10084;50.518;8.588;2023-04-23T13:30:01;0.90;;;0.47;;
19846;SDS011;10084;50.518;8.588;2023-04-23T13:32:27;0.40;;;0.40;;
19846;SDS011;10084;50.518;8.588;2023-04-23T13:34:56;0.60;;;0.50;;
19846;SDS011;10084;50.518;8.588;2023-04-23T13:37:24;0.60;;;0.60;;
19846;SDS011;10084;50.518;8.588;2023-04-23T13:39:51;0.50;;;0.50;;
19846;SDS011;10084;50.518;8.588;2023-04-23T13:42:18;1.10;;;0.70;;
19846;SDS011;10084;50.518;8.588;2023-04-23T13:44:44;4.00;;;0.53;;
19846;SDS011;10084;50.518;8.588;2023-04-23T13:47:21;2.00;;;0.80;;
19846;SDS011;10084;50.518;8.588;2023-04-23T13:49:59;0.63;;;0.63;;
19846;SDS011;10084;50.518;8.588;2023-04-23T13:52:31;0.63;;;0.63;;
19846;SDS011;10084;50.518;8.588;2023-04-23T13:55:37;0.90;;;0.70;;
19846;SDS011;10084;50.518;8.588;2023-04-23T13:58:05;0.60;;;0.60;;
19846;SDS011;10084;50.518;8.588;2023-04-23T14:00:34;0.77;;;0.70;;
19846;SDS011;10084;50.518;8.588;2023-04-23T14:03:10;0.80;;;0.70;;
19846;SDS011;10084;50.518;8.588;2023-04-23T14:05:39;0.90;;;0.67;;
19846;SDS011;10084;50.518;8.588;2023-04-23T14:08:09;0.70;;;0.60;;
19846;SDS011;10084;50.518;8.588;2023-04-23T14:10:37;0.80;;;0.63;;
19846;SDS011;10084;50.518;8.588;2023-04-23T14:13:46;1.83;;;0.83;;
19846;SDS011;10084;50.518;8.588;2023-04-23T14:16:53;1.47;;;0.50;;
19846;SDS011;10084;50.518;8.588;2023-04-23T14:20:01;0.73;;;0.60;;
19846;SDS011;10084;50.518;8.588;2023-04-23T14:29:07;0.73;;;0.67;;
19846;SDS011;10084;50.518;8.588;2023-04-23T14:31:37;0.60;;;0.60;;
19846;SDS011;10084;50.518;8.588;2023-04-23T14:34:03;0.87;;;0.73;;
19846;SDS011;10084;50.518;8.588;2023-04-23T14:36:30;0.60;;;0.60;;
19846;SDS011;10084;50.518;8.588;2023-04-23T14:38:56;1.00;;;0.87;;
19846;SDS011;10084;50.518;8.588;2023-04-23T14:41:29;0.80;;;0.80;;
19846;SDS011;10084;50.518;8.588;2023-04-23T14:44:00;0.73;;;0.60;;
19846;SDS011;10084;50.518;8.588;2023-04-23T14:46:29;0.63;;;0.60;;
19846;SDS011;10084;50.518;8.588;2023-04-23T14:48:57;0.70;;;0.70;;
19846;SDS011;10084;50.518;8.588;2023-04-23T14:51:23;2.10;;;0.57;;
19846;SDS011;10084;50.518;8.588;2023-04-23T14:53:51;0.83;;;0.83;;
19846;SDS011;10084;50.518;8.588;2023-04-23T14:56:19;0.77;;;0.77;;
19846;SDS011;10084;50.518;8.588;2023-04-23T14:58:48;0.80;;;0.80;;
19846;SDS011;10084;50.518;8.588;2023-04-23T15:01:16;2.80;;;1.10;;